createdAt,value
2023-02-18T00:01:48.658Z,98384.38
2023-02-18T00:04:50.158Z,98385.25
2023-02-18T00:07:51.811Z,98390.03
2023-02-18T00:10:53.990Z,98388.50
2023-02-18T00:13:59.276Z,98385.03
2023-02-18T00:17:00.778Z,98390.16
2023-02-18T00:20:02.366Z,98387.38
2023-02-18T00:23:03.902Z,98380.69
2023-02-18T00:26:17.090Z,98369.13
2023-02-18T00:29:19.775Z,98378.69
2023-02-18T00:32:22.877Z,98375.81
2023-02-18T00:35:24.420Z,98373.34
2023-02-18T00:38:25.837Z,98372.19
2023-02-18T00:41:29.783Z,98359.91
2023-02-18T00:44:31.928Z,98351.16
2023-02-18T00:47:33.447Z,98351.31
2023-02-18T00:50:35.664Z,98346.53
2023-02-18T00:53:37.609Z,98349.50
2023-02-18T00:56:39.073Z,98349.50
2023-02-18T00:59:40.543Z,98342.38
2023-02-18T01:02:42.102Z,98341.88
2023-02-18T01:05:44.695Z,98342.00
2023-02-18T01:08:46.134Z,98343.50
2023-02-18T01:11:47.574Z,98337.09
2023-02-18T01:14:49.016Z,98324.06
2023-02-18T01:17:51.800Z,98333.34
2023-02-18T01:20:53.730Z,98321.22
2023-02-18T01:23:55.287Z,98327.00
2023-02-18T01:26:56.759Z,98320.91
2023-02-18T01:29:58.318Z,98322.69
2023-02-18T01:33:00.269Z,98321.72
2023-02-18T01:36:01.951Z,98322.16
2023-02-18T01:39:05.593Z,98326.78
2023-02-18T01:42:07.207Z,98319.53
2023-02-18T01:45:47.754Z,98328.13
2023-02-18T01:48:58.401Z,98310.44
2023-02-18T01:52:16.139Z,98310.59
2023-02-18T01:55:18.790Z,98299.50
2023-02-18T01:58:21.004Z,98309.72
2023-02-18T02:01:23.951Z,98310.72
2023-02-18T02:04:26.277Z,98304.72
2023-02-18T02:07:28.724Z,98300.13
2023-02-18T02:10:41.020Z,98310.38
2023-02-18T02:14:16.006Z,98301.84
2023-02-18T02:17:39.706Z,98303.19
2023-02-18T02:20:45.124Z,98296.88
2023-02-18T02:24:02.095Z,98291.91
2023-02-18T02:27:25.255Z,98283.47
2023-02-18T02:30:53.055Z,98284.16
2023-02-18T02:34:17.695Z,98288.94
2023-02-18T02:37:19.090Z,98287.13
2023-02-18T02:40:27.799Z,98285.97
2023-02-18T02:43:48.444Z,98282.88
2023-02-18T02:47:02.228Z,98280.03
2023-02-18T02:50:09.625Z,98285.34
2023-02-18T02:53:20.253Z,98284.38
2023-02-18T02:56:25.443Z,98283.19
2023-02-18T02:59:29.370Z,98278.69
2023-02-18T03:03:09.638Z,98286.66
2023-02-18T03:06:27.108Z,98278.03
2023-02-18T03:09:34.702Z,98276.19
2023-02-18T03:12:51.417Z,98277.88
2023-02-18T03:16:16.689Z,98267.13
2023-02-18T03:19:28.950Z,98260.16
2023-02-18T03:22:39.904Z,98269.13
2023-02-18T03:25:42.300Z,98258.53
2023-02-18T03:28:45.687Z,98253.38
2023-02-18T03:31:52.742Z,98258.97
2023-02-18T03:35:00.808Z,98254.72
2023-02-18T03:38:17.443Z,98238.81
2023-02-18T03:41:18.926Z,98236.00
2023-02-18T03:44:20.657Z,98248.25
2023-02-18T03:47:23.957Z,98246.13
2023-02-18T03:50:25.460Z,98247.13
2023-02-18T03:53:26.981Z,98245.44
2023-02-18T03:56:28.427Z,98234.19
2023-02-18T03:59:30.095Z,98241.00
2023-02-18T04:02:31.632Z,98257.72
2023-02-18T04:05:33.135Z,98256.72
2023-02-18T04:08:34.805Z,98250.44
2023-02-18T04:11:38.937Z,98246.13
2023-02-18T04:14:40.434Z,98252.72
2023-02-18T04:17:42.006Z,98249.41
2023-02-18T04:20:43.893Z,98244.94
2023-02-18T04:23:45.394Z,98245.78
2023-02-18T04:26:46.922Z,98245.78
2023-02-18T04:29:48.474Z,98244.13
2023-02-18T04:32:49.948Z,98255.53
2023-02-18T04:35:51.419Z,98243.28
2023-02-18T04:38:52.977Z,98247.75
2023-02-18T04:41:54.564Z,98254.88
2023-02-18T04:44:56.079Z,98252.03
2023-02-18T04:47:57.631Z,98262.13
2023-02-18T04:50:59.053Z,98257.13
2023-02-18T04:54:00.509Z,98257.13
2023-02-18T04:57:02.103Z,98263.91
2023-02-18T05:00:06.854Z,98247.88
2023-02-18T05:03:08.329Z,98245.06
2023-02-18T05:06:10.177Z,98232.81
2023-02-18T05:09:12.451Z,98237.13
2023-02-18T05:12:13.973Z,98240.94
2023-02-18T05:15:15.610Z,98243.56
2023-02-18T05:18:17.064Z,98242.56
2023-02-18T05:21:18.714Z,98252.19
2023-02-18T05:24:20.231Z,98246.91
2023-02-18T05:27:21.713Z,98245.09
2023-02-18T05:30:23.243Z,98247.91
2023-02-18T05:33:24.933Z,98242.25
2023-02-18T05:36:26.860Z,98232.97
2023-02-18T05:39:28.366Z,98240.94
2023-02-18T05:42:29.878Z,98231.47
2023-02-18T05:45:31.458Z,98239.25
2023-02-18T05:48:32.948Z,98227.19
2023-02-18T05:51:34.471Z,98215.47
2023-02-18T05:54:36.937Z,98235.00
2023-02-18T05:57:38.409Z,98229.69
2023-02-18T06:00:39.906Z,98225.22
2023-02-18T06:03:41.418Z,98238.31
2023-02-18T06:06:43.237Z,98229.38
2023-02-18T06:09:44.732Z,98236.00
2023-02-18T06:12:46.270Z,98231.53
2023-02-18T06:15:51.701Z,98208.72
2023-02-18T06:18:53.293Z,98227.91
2023-02-18T06:21:56.196Z,98214.00
2023-02-18T06:24:57.674Z,98230.41
2023-02-18T06:27:59.187Z,98216.47
2023-02-18T06:31:00.787Z,98233.81
2023-02-18T06:34:02.314Z,98220.13
2023-02-18T06:37:03.867Z,98217.84
2023-02-18T06:40:06.832Z,98215.84
2023-02-18T06:43:08.359Z,98202.44
2023-02-18T06:46:10.279Z,98212.56
2023-02-18T06:49:11.989Z,98219.69
2023-02-18T06:52:14.579Z,98208.78
2023-02-18T06:55:16.101Z,98212.84
2023-02-18T06:58:17.829Z,98212.19
2023-02-18T07:01:19.353Z,98211.69
2023-02-18T07:04:20.806Z,98210.22
2023-02-18T07:07:22.234Z,98217.38
2023-02-18T07:10:23.976Z,98230.63
2023-02-18T07:13:25.472Z,98214.22
2023-02-18T07:16:27.151Z,98229.81
2023-02-18T07:19:28.649Z,98213.94
2023-02-18T07:22:30.364Z,98220.88
2023-02-18T07:25:31.875Z,98224.38
2023-02-18T07:28:33.401Z,98229.50
2023-02-18T07:31:34.893Z,98228.16
2023-02-18T07:34:36.450Z,98222.53
2023-02-18T07:37:37.896Z,98229.50
2023-02-18T07:40:39.387Z,98224.88
2023-02-18T07:43:40.832Z,98232.47
2023-02-18T07:46:42.711Z,98227.38
2023-02-18T07:49:44.433Z,98225.75
2023-02-18T07:52:45.904Z,98217.97
2023-02-18T07:55:50.317Z,98228.13
2023-02-18T07:58:51.835Z,98243.88
2023-02-18T08:01:53.330Z,98233.91
2023-02-18T08:04:54.833Z,98230.41
2023-02-18T08:07:56.359Z,98228.94
2023-02-18T08:11:07.152Z,98228.13
2023-02-18T08:14:15.005Z,98235.56
2023-02-18T08:17:17.553Z,98254.41
2023-02-18T08:20:19.166Z,98236.53
2023-02-18T08:23:21.826Z,98229.06
2023-02-18T08:26:23.331Z,98232.22
2023-02-18T08:29:24.804Z,98230.06
2023-02-18T08:32:29.446Z,98232.41
2023-02-18T08:35:30.981Z,98236.53
2023-02-18T08:38:32.438Z,98239.03
2023-02-18T08:41:33.912Z,98240.88
2023-02-18T08:44:35.354Z,98236.84
2023-02-18T08:48:18.538Z,98237.03
2023-02-18T08:50:59.056Z,98235.84
2023-02-18T08:54:00.567Z,98230.53
2023-02-18T08:57:01.997Z,98237.88
2023-02-18T09:00:04.059Z,98238.53
2023-02-18T09:03:05.817Z,98231.94
2023-02-18T09:06:07.927Z,98232.31
2023-02-18T09:09:10.291Z,98232.78
2023-02-18T09:12:11.726Z,98243.38
2023-02-18T09:15:13.279Z,98237.22
2023-02-18T09:18:14.729Z,98245.81
2023-02-18T09:21:18.955Z,98238.22
2023-02-18T09:24:20.740Z,98238.38
2023-02-18T09:27:22.276Z,98262.69
2023-02-18T09:30:23.828Z,98242.81
2023-02-18T09:33:25.257Z,98254.25
2023-02-18T09:36:27.778Z,98257.91
2023-02-18T09:39:29.410Z,98251.28
2023-02-18T09:42:34.830Z,98252.44
2023-02-18T09:45:36.337Z,98257.91
2023-02-18T09:48:37.962Z,98313.41
2023-02-18T09:51:39.601Z,98230.72
2023-02-18T09:54:41.233Z,98242.84
2023-02-18T09:57:49.302Z,98240.25
2023-02-18T10:01:21.985Z,98234.66
2023-02-18T10:04:43.018Z,98221.84
2023-02-18T10:07:46.583Z,98224.00
2023-02-18T10:10:48.183Z,98251.53
2023-02-18T10:13:50.761Z,98220.50
2023-02-18T10:16:53.712Z,98219.94
2023-02-18T10:19:56.873Z,98205.81
2023-02-18T10:23:01.236Z,98214.28
2023-02-18T10:26:07.585Z,98210.91
2023-02-18T10:29:20.977Z,98207.31
2023-02-18T10:32:27.565Z,98220.56
2023-02-18T10:35:38.447Z,98216.13
2023-02-18T10:39:03.182Z,98222.06
2023-02-18T10:42:23.414Z,98205.94
2023-02-18T10:45:56.989Z,98180.84
2023-02-18T10:49:09.673Z,98187.88
2023-02-18T10:52:17.452Z,98180.47
2023-02-18T10:55:19.177Z,98189.97
2023-02-18T10:58:35.938Z,98194.34
2023-02-18T11:01:38.202Z,98177.28
2023-02-18T11:04:42.353Z,98184.31
2023-02-18T11:07:48.811Z,98178.41
2023-02-18T11:10:50.903Z,98166.47
2023-02-18T11:13:58.614Z,98172.53
2023-02-18T11:17:09.833Z,98167.88
2023-02-18T11:20:23.393Z,98183.47
2023-02-18T11:23:25.732Z,98167.88
2023-02-18T11:26:33.714Z,98181.16
2023-02-18T11:29:35.606Z,98164.66
2023-02-18T11:32:38.124Z,98167.84
2023-02-18T11:35:39.836Z,98142.81
2023-02-18T11:38:49.363Z,98160.63
2023-02-18T11:41:56.775Z,98162.38
2023-02-18T11:45:00.331Z,98156.06
2023-02-18T11:48:19.103Z,98173.59
2023-02-18T11:51:28.330Z,98143.19
2023-02-18T11:54:31.498Z,98160.47
2023-02-18T11:57:36.944Z,98129.31
2023-02-18T12:00:42.670Z,98135.22
2023-02-18T12:03:54.626Z,98107.03
2023-02-18T12:07:13.973Z,98131.91
2023-02-18T12:10:25.206Z,98117.97
2023-02-18T12:13:42.878Z,98126.75
2023-02-18T12:17:07.063Z,98125.56
2023-02-18T12:20:34.916Z,98098.00
2023-02-18T12:24:04.302Z,98104.25
2023-02-18T12:27:20.676Z,98096.16
2023-02-18T12:30:43.455Z,98114.06
2023-02-18T12:34:10.325Z,98096.69
2023-02-18T12:37:32.452Z,98092.44
2023-02-18T12:41:05.873Z,98106.16
2023-02-18T12:44:22.561Z,98085.16
2023-02-18T12:47:46.968Z,98089.53
2023-02-18T12:51:13.420Z,98099.69
2023-02-18T12:54:29.961Z,98110.63
2023-02-18T12:57:43.254Z,98089.97
2023-02-18T13:01:04.710Z,98084.31
2023-02-18T13:04:25.805Z,98087.97
2023-02-18T13:07:34.240Z,98086.09
2023-02-18T13:11:08.997Z,98084.38
2023-02-18T13:14:29.430Z,98070.97
2023-02-18T13:17:36.618Z,98088.31
2023-02-18T13:20:46.647Z,98088.78
2023-02-18T13:24:02.528Z,98077.00
2023-02-18T13:27:22.851Z,98076.28
2023-02-18T13:30:36.431Z,98069.66
2023-02-18T13:33:55.683Z,98061.84
2023-02-18T13:37:08.684Z,98057.72
2023-02-18T13:40:19.600Z,98053.13
2023-02-18T13:43:21.124Z,98054.50
2023-02-18T13:46:24.555Z,98051.22
2023-02-18T13:49:32.238Z,98043.00
2023-02-18T13:52:33.746Z,98056.81
2023-02-18T13:55:56.654Z,98042.47
2023-02-18T13:59:09.102Z,98043.84
2023-02-18T14:02:19.610Z,98051.91
2023-02-18T14:05:23.827Z,98032.72
2023-02-18T14:08:35.827Z,98044.91
2023-02-18T14:12:23.691Z,98033.69
2023-02-18T14:15:25.157Z,98026.31
2023-02-18T14:18:39.908Z,98041.16
2023-02-18T14:21:43.283Z,98024.94
2023-02-18T14:24:49.803Z,98027.53
2023-02-18T14:27:53.609Z,98013.56
2023-02-18T14:30:55.264Z,98030.25
2023-02-18T14:33:59.577Z,98015.59
2023-02-18T14:37:19.439Z,98016.69
2023-02-18T14:40:41.416Z,98007.97
2023-02-18T14:43:52.324Z,98014.03
2023-02-18T14:47:02.174Z,98008.78
2023-02-18T14:50:11.168Z,98005.47
2023-02-18T14:53:18.526Z,97998.31
2023-02-18T14:56:22.003Z,98012.94
2023-02-18T14:59:28.357Z,98004.84
2023-02-18T15:02:32.995Z,98002.25
2023-02-18T15:05:38.127Z,98001.91
2023-02-18T15:08:40.284Z,98001.44
2023-02-18T15:11:54.846Z,98009.25
2023-02-18T15:15:02.563Z,98000.00
2023-02-18T15:18:05.130Z,97997.50
2023-02-18T15:21:19.802Z,98003.66
2023-02-18T15:24:32.608Z,97994.91
2023-02-18T15:27:39.354Z,97994.47
2023-02-18T15:30:40.866Z,97997.03
2023-02-18T15:33:44.462Z,97995.09
2023-02-18T15:36:53.220Z,97990.50
2023-02-18T15:39:54.799Z,97995.47
2023-02-18T15:42:58.876Z,97988.25
2023-02-18T15:46:00.405Z,97992.81
2023-02-18T15:49:07.667Z,97989.50
2023-02-18T15:52:09.222Z,97983.78
2023-02-18T15:55:27.038Z,97971.22
2023-02-18T15:58:32.648Z,97981.66
2023-02-18T16:01:34.598Z,97972.09
2023-02-18T16:04:41.427Z,97978.47
2023-02-18T16:07:52.573Z,97981.00
2023-02-18T16:11:03.183Z,97971.44
2023-02-18T16:14:07.892Z,97978.78
2023-02-18T16:17:12.077Z,97973.50
2023-02-18T16:20:30.676Z,97967.38
2023-02-18T16:23:54.339Z,97967.25
2023-02-18T16:27:00.300Z,97974.47
2023-02-18T16:30:14.724Z,97954.44
2023-02-18T16:33:16.224Z,97956.81
2023-02-18T16:36:18.027Z,97955.59
2023-02-18T16:39:19.493Z,97953.97
2023-02-18T16:42:21.141Z,97948.38
2023-02-18T16:45:32.431Z,97948.69
2023-02-18T16:48:37.390Z,97952.72
2023-02-18T16:51:39.573Z,97963.00
2023-02-18T16:54:41.797Z,97953.91
2023-02-18T16:57:43.262Z,97956.91
2023-02-18T17:00:46.803Z,97967.34
2023-02-18T17:03:48.984Z,97969.34
2023-02-18T17:06:50.534Z,97965.88
2023-02-18T17:09:52.037Z,97971.50
2023-02-18T17:12:53.481Z,97962.72
2023-02-18T17:15:57.112Z,97961.59
2023-02-18T17:18:58.605Z,97971.88
2023-02-18T17:22:00.105Z,97971.38
2023-02-18T17:25:01.575Z,97975.53
2023-02-18T17:28:03.487Z,97978.88
2023-02-18T17:31:05.301Z,97976.38
2023-02-18T17:34:09.408Z,97982.50
2023-02-18T17:37:14.041Z,97988.97
2023-02-18T17:40:17.878Z,97999.75
2023-02-18T17:43:19.753Z,97990.66
2023-02-18T17:46:22.056Z,98000.25
2023-02-18T17:49:23.701Z,98005.38
2023-02-18T17:52:30.677Z,98006.88
2023-02-18T17:55:35.321Z,98005.22
2023-02-18T17:58:36.765Z,97999.09
2023-02-18T18:01:38.540Z,98003.75
2023-02-18T18:04:40.066Z,98004.72
2023-02-18T18:07:41.588Z,98001.75
2023-02-18T18:10:54.892Z,98005.91
2023-02-18T18:13:57.912Z,97996.63
2023-02-18T18:17:00.237Z,98005.56
2023-02-18T18:20:01.714Z,97999.78
2023-02-18T18:23:05.180Z,98005.06
2023-02-18T18:26:06.625Z,97999.44
2023-02-18T18:29:08.207Z,97994.63
2023-02-18T18:32:09.728Z,98008.53
2023-02-18T18:35:35.538Z,98000.44
2023-02-18T18:38:37.000Z,98004.91
2023-02-18T18:41:38.460Z,97996.31
2023-02-18T18:44:40.768Z,97999.44
2023-02-18T18:47:42.209Z,97999.28
2023-02-18T18:50:44.257Z,98010.38
2023-02-18T18:53:45.916Z,98004.91
2023-02-18T18:56:50.193Z,98001.44
2023-02-18T18:59:51.726Z,98008.88
2023-02-18T19:02:53.348Z,98002.75
2023-02-18T19:05:55.555Z,98001.75
2023-02-18T19:08:57.171Z,98005.25
2023-02-18T19:11:58.648Z,98004.91
2023-02-18T19:15:00.151Z,98002.91
2023-02-18T19:18:01.698Z,97998.13
2023-02-18T19:21:04.701Z,98001.63
2023-02-18T19:24:06.188Z,97995.81
2023-02-18T19:27:10.128Z,98009.88
2023-02-18T19:30:22.856Z,98008.88
2023-02-18T19:33:24.376Z,97993.34
2023-02-18T19:36:25.944Z,98002.28
2023-02-18T19:39:27.397Z,98003.09
2023-02-18T19:42:29.773Z,98000.59
2023-02-18T19:45:31.905Z,98005.91
2023-02-18T19:48:33.348Z,98008.22
2023-02-18T19:51:34.835Z,97993.97
2023-02-18T19:54:36.304Z,97996.47
2023-02-18T19:57:38.085Z,98007.75
2023-02-18T20:00:40.434Z,98000.28
2023-02-18T20:03:42.828Z,97989.34
2023-02-18T20:06:44.292Z,97990.50
2023-02-18T20:09:46.195Z,97992.00
2023-02-18T20:12:53.986Z,98002.25
2023-02-18T20:15:55.622Z,97992.16
2023-02-18T20:18:57.148Z,97999.75
2023-02-18T20:22:00.124Z,97999.59
2023-02-18T20:25:01.745Z,97988.84
2023-02-18T20:28:03.208Z,98004.56
2023-02-18T20:31:07.149Z,97993.78
2023-02-18T20:34:09.923Z,98003.06
2023-02-18T20:37:11.495Z,98001.91
2023-02-18T20:40:13.015Z,97996.59
2023-02-18T20:43:14.458Z,98000.25
2023-02-18T20:46:18.926Z,98002.72
2023-02-18T20:49:21.906Z,98008.19
2023-02-18T20:52:23.379Z,97996.59
2023-02-18T20:55:25.009Z,98004.56
2023-02-18T20:58:27.122Z,98012.50
2023-02-18T21:01:28.780Z,97996.59
2023-02-18T21:04:30.289Z,97988.81
2023-02-18T21:07:31.842Z,97984.69
2023-02-18T21:10:33.253Z,97985.50
2023-02-18T21:13:35.170Z,97989.50
2023-02-18T21:16:39.750Z,97986.34
2023-02-18T21:19:41.663Z,97987.16
2023-02-18T21:22:43.132Z,97977.06
2023-02-18T21:25:44.994Z,97984.19
2023-02-18T21:28:48.374Z,97968.09
2023-02-18T21:31:50.021Z,97976.06
2023-02-18T21:34:51.650Z,97975.59
2023-02-18T21:37:53.122Z,97974.09
2023-02-18T21:40:54.619Z,97963.16
2023-02-18T21:43:56.509Z,97964.13
2023-02-18T21:46:58.035Z,97961.66
2023-02-18T21:49:59.474Z,97966.13
2023-02-18T21:53:04.134Z,97964.50
2023-02-18T21:56:11.396Z,97971.75
2023-02-18T21:59:12.951Z,97973.44
2023-02-18T22:02:17.565Z,97974.25
2023-02-18T22:05:19.074Z,97973.59
2023-02-18T22:08:21.208Z,97979.06
2023-02-18T22:11:22.668Z,97970.28
2023-02-18T22:14:24.136Z,97965.97
2023-02-18T22:17:26.022Z,97972.13
2023-02-18T22:20:27.561Z,97964.34
2023-02-18T22:23:31.276Z,97958.53
2023-02-18T22:26:32.997Z,97954.06
2023-02-18T22:29:34.576Z,97962.00
2023-02-18T22:32:36.114Z,97962.84
2023-02-18T22:35:37.602Z,97948.63
2023-02-18T22:38:39.788Z,97962.53
2023-02-18T22:41:42.141Z,97948.13
2023-02-18T22:44:43.580Z,97957.72
2023-02-18T22:47:45.044Z,97958.53
2023-02-18T22:50:46.570Z,97956.91
2023-02-18T22:53:48.074Z,97962.53
2023-02-18T22:56:49.537Z,97961.22
2023-02-18T22:59:50.958Z,97966.66
2023-02-18T23:02:53.262Z,97958.88
2023-02-18T23:05:55.352Z,97953.75
2023-02-18T23:08:57.190Z,97947.78
2023-02-18T23:11:58.692Z,97954.91
2023-02-18T23:15:00.209Z,97952.94
2023-02-18T23:18:01.645Z,97958.06
2023-02-18T23:21:20.734Z,97950.28
2023-02-18T23:24:22.559Z,97951.44
2023-02-18T23:27:24.494Z,97946.47
2023-02-18T23:30:26.115Z,97941.50
2023-02-18T23:33:27.886Z,97952.44
2023-02-18T23:36:31.085Z,97950.28
2023-02-18T23:39:32.900Z,97941.50
2023-02-18T23:42:34.396Z,97935.91
2023-02-18T23:45:35.860Z,97956.06
2023-02-18T23:48:38.418Z,97938.69
2023-02-18T23:51:40.019Z,97942.66
2023-02-18T23:54:41.515Z,97944.66
2023-02-18T23:57:42.993Z,97948.13
